createdAt,value
2023-04-04T00:03:43.892Z,1.40
2023-04-04T00:07:56.458Z,3.40
2023-04-04T00:12:08.964Z,1.70
2023-04-04T00:16:22.668Z,1.48
2023-04-04T00:20:35.141Z,4.28
2023-04-04T00:24:47.586Z,3.47
2023-04-04T00:29:00.124Z,1.20
2023-04-04T00:33:12.793Z,3.40
2023-04-04T00:37:25.316Z,4.10
2023-04-04T00:41:39.973Z,2.42
2023-04-04T00:45:52.740Z,4.25
2023-04-04T00:50:06.317Z,1.52
2023-04-04T00:54:18.906Z,6.35
2023-04-04T00:58:31.862Z,1.65
2023-04-04T01:02:44.502Z,1.30
2023-04-04T01:06:57.444Z,2.28
2023-04-04T01:11:10.956Z,0.60
2023-04-04T01:15:23.888Z,1.23
2023-04-04T01:19:43.885Z,0.73
2023-04-04T01:24:03.391Z,2.45
2023-04-04T01:28:23.613Z,1.63
2023-04-04T01:32:52.065Z,3.60
2023-04-04T01:37:11.917Z,1.83
2023-04-04T01:41:25.709Z,1.58
2023-04-04T01:45:42.844Z,3.20
2023-04-04T01:49:57.897Z,2.28
2023-04-04T01:54:11.109Z,3.72
2023-04-04T01:58:23.633Z,2.22
2023-04-04T02:02:36.327Z,1.25
2023-04-04T02:06:48.722Z,1.27
2023-04-04T02:11:01.787Z,2.35
2023-04-04T02:15:14.456Z,3.20
2023-04-04T02:19:28.009Z,3.60
2023-04-04T02:23:40.614Z,2.88
2023-04-04T02:27:53.124Z,2.72
2023-04-04T02:32:06.148Z,0.77
2023-04-04T02:36:18.686Z,1.10
2023-04-04T02:40:32.823Z,1.52
2023-04-04T02:44:45.215Z,1.58
2023-04-04T02:49:02.284Z,0.70
2023-04-04T02:53:16.040Z,1.52
2023-04-04T02:57:29.987Z,3.63
2023-04-04T03:01:42.788Z,3.75
2023-04-04T03:05:55.294Z,0.90
2023-04-04T03:10:08.145Z,3.17
2023-04-04T03:14:20.992Z,2.17
2023-04-04T03:18:34.958Z,1.08
2023-04-04T03:22:47.434Z,2.13
2023-04-04T03:27:01.849Z,0.68
2023-04-04T03:31:14.416Z,1.42
2023-04-04T03:35:28.156Z,0.63
2023-04-04T03:39:41.044Z,1.15
2023-04-04T03:43:53.768Z,3.22
2023-04-04T03:48:06.464Z,1.58
2023-04-04T03:52:19.124Z,2.00
2023-04-04T03:56:34.490Z,1.23
2023-04-04T04:00:50.409Z,2.78
2023-04-04T04:05:04.111Z,1.83
2023-04-04T04:09:16.566Z,3.85
2023-04-04T04:13:29.690Z,2.33
2023-04-04T04:17:42.384Z,5.75
2023-04-04T04:21:57.197Z,3.13
2023-04-04T04:26:09.820Z,2.80
2023-04-04T04:30:22.311Z,5.75
2023-04-04T04:34:34.897Z,3.17
2023-04-04T04:38:48.224Z,2.78
2023-04-04T04:43:01.733Z,2.88
2023-04-04T04:47:14.231Z,1.50
2023-04-04T04:51:27.698Z,5.32
2023-04-04T04:55:45.055Z,2.28
2023-04-04T04:59:57.436Z,4.00
2023-04-04T05:04:12.464Z,4.35
2023-04-04T05:08:34.461Z,4.18
2023-04-04T05:13:00.605Z,8.45
2023-04-04T05:17:18.370Z,7.18
2023-04-04T05:21:31.213Z,7.28
2023-04-04T05:25:45.376Z,5.32
2023-04-04T05:29:58.565Z,7.07
2023-04-04T05:34:18.748Z,5.50
2023-04-04T05:38:33.476Z,5.03
2023-04-04T05:42:55.124Z,4.47
2023-04-04T05:47:09.554Z,4.40
2023-04-04T05:51:25.119Z,9.25
2023-04-04T05:59:57.770Z,11.60
2023-04-04T06:04:10.346Z,10.70
2023-04-04T06:08:23.095Z,7.20
2023-04-04T06:12:35.755Z,5.75
2023-04-04T06:16:52.613Z,9.10
2023-04-04T06:21:05.096Z,15.25
2023-04-04T06:25:18.371Z,10.15
2023-04-04T06:29:32.460Z,5.95
2023-04-04T06:33:46.627Z,9.82
2023-04-04T06:38:00.164Z,13.23
2023-04-04T06:42:14.235Z,16.55
2023-04-04T06:46:33.528Z,13.15
2023-04-04T06:50:46.480Z,9.30
2023-04-04T06:55:01.454Z,10.05
2023-04-04T06:59:15.492Z,17.85
2023-04-04T07:03:28.097Z,14.95
2023-04-04T07:07:40.487Z,19.67
2023-04-04T07:11:52.838Z,13.70
2023-04-04T07:16:06.410Z,21.05
2023-04-04T07:20:18.919Z,20.73
2023-04-04T07:24:31.407Z,12.13
2023-04-04T07:28:43.860Z,15.13
2023-04-04T07:33:03.450Z,15.15
2023-04-04T07:37:16.101Z,10.13
2023-04-04T07:41:28.576Z,9.70
2023-04-04T07:45:41.243Z,8.85
2023-04-04T07:49:53.751Z,10.35
2023-04-04T07:54:06.402Z,10.45
2023-04-04T07:58:18.830Z,10.20
2023-04-04T08:02:31.973Z,10.65
2023-04-04T08:06:44.480Z,11.25
2023-04-04T08:10:57.898Z,11.48
2023-04-04T08:15:11.162Z,8.35
2023-04-04T08:19:24.013Z,15.82
2023-04-04T08:23:36.648Z,10.90
2023-04-04T08:27:49.143Z,11.38
2023-04-04T08:32:01.647Z,14.00
2023-04-04T08:36:14.098Z,12.80
2023-04-04T08:40:26.611Z,11.25
2023-04-04T08:44:42.363Z,17.17
2023-04-04T08:48:57.576Z,7.68
2023-04-04T08:53:12.091Z,12.50
2023-04-04T08:57:24.708Z,11.82
2023-04-04T09:01:37.775Z,10.40
2023-04-04T09:05:51.142Z,12.65
2023-04-04T09:10:04.428Z,5.32
2023-04-04T09:14:17.767Z,4.30
2023-04-04T09:18:32.671Z,5.55
2023-04-04T09:22:46.105Z,5.00
2023-04-04T09:26:58.635Z,3.22
2023-04-04T09:31:12.157Z,8.25
2023-04-04T09:35:24.785Z,9.88
2023-04-04T09:39:40.574Z,7.95
2023-04-04T09:43:53.312Z,7.95
2023-04-04T09:48:08.139Z,6.85
2023-04-04T09:52:21.796Z,6.28
2023-04-04T09:56:34.830Z,8.32
2023-04-04T10:00:48.862Z,7.47
2023-04-04T10:09:16.818Z,3.05
2023-04-04T10:13:36.009Z,2.85
2023-04-04T10:17:50.086Z,4.07
2023-04-04T10:22:02.862Z,2.92
2023-04-04T10:26:15.947Z,4.03
2023-04-04T10:30:28.396Z,3.25
2023-04-04T10:34:50.092Z,4.15
2023-04-04T10:39:29.256Z,1.52
2023-04-04T10:43:45.050Z,2.63
2023-04-04T10:47:57.772Z,4.38
2023-04-04T10:52:13.588Z,3.58
2023-04-04T10:56:26.606Z,2.67
2023-04-04T11:00:55.511Z,3.22
2023-04-04T11:05:23.078Z,3.95
2023-04-04T11:09:52.171Z,3.90
2023-04-04T11:14:05.776Z,9.55
2023-04-04T11:18:32.786Z,3.33
2023-04-04T11:22:46.240Z,2.67
2023-04-04T11:26:58.836Z,3.50
2023-04-04T11:31:20.984Z,3.15
2023-04-04T11:35:33.397Z,4.53
2023-04-04T11:39:57.600Z,5.90
2023-04-04T11:44:10.924Z,3.50
2023-04-04T11:48:24.012Z,7.28
2023-04-04T11:52:36.624Z,5.18
2023-04-04T11:56:49.390Z,3.75
2023-04-04T12:01:01.920Z,5.05
2023-04-04T12:05:14.869Z,5.43
2023-04-04T12:09:27.448Z,3.80
2023-04-04T12:13:44.939Z,3.55
2023-04-04T12:17:57.814Z,5.25
2023-04-04T12:22:10.445Z,7.93
2023-04-04T12:26:23.000Z,2.80
2023-04-04T12:30:35.813Z,4.70
2023-04-04T12:34:49.961Z,3.15
2023-04-04T12:39:07.853Z,4.95
2023-04-04T12:43:21.090Z,2.00
2023-04-04T12:47:34.432Z,3.95
2023-04-04T12:51:46.885Z,4.07
2023-04-04T12:56:05.172Z,7.70
2023-04-04T13:00:20.080Z,5.97
2023-04-04T13:04:33.595Z,3.67
2023-04-04T13:08:55.793Z,5.68
2023-04-04T13:13:08.224Z,3.47
2023-04-04T13:17:20.660Z,5.40
2023-04-04T13:21:33.267Z,4.97
2023-04-04T13:25:45.847Z,4.88
2023-04-04T13:29:58.260Z,3.47
2023-04-04T13:34:10.828Z,3.88
2023-04-04T13:38:25.240Z,4.35
2023-04-04T13:42:39.117Z,5.97
2023-04-04T13:46:51.596Z,4.78
2023-04-04T13:51:04.148Z,4.28
2023-04-04T13:55:17.167Z,4.47
2023-04-04T13:59:29.646Z,3.70
2023-04-04T14:03:42.410Z,3.45
2023-04-04T14:07:54.676Z,5.57
2023-04-04T14:12:07.566Z,5.82
2023-04-04T14:16:19.926Z,4.60
2023-04-04T14:20:33.421Z,8.55
2023-04-04T14:24:46.630Z,5.45
2023-04-04T14:28:58.977Z,6.63
2023-04-04T14:33:11.352Z,6.95
2023-04-04T14:37:24.331Z,4.82
2023-04-04T14:41:36.849Z,4.82
2023-04-04T14:45:49.276Z,7.60
2023-04-04T14:50:01.982Z,4.97
2023-04-04T14:54:14.218Z,6.63
2023-04-04T14:58:26.665Z,6.72
2023-04-04T15:02:39.015Z,10.77
2023-04-04T15:06:54.683Z,5.65
2023-04-04T15:11:07.551Z,5.30
2023-04-04T15:15:21.104Z,7.32
2023-04-04T15:19:34.935Z,6.82
2023-04-04T15:23:47.446Z,3.55
2023-04-04T15:28:01.409Z,8.63
2023-04-04T15:32:14.002Z,9.75
2023-04-04T15:36:28.861Z,9.63
2023-04-04T15:40:41.742Z,7.13
2023-04-04T15:58:41.814Z,7.65
2023-04-04T16:02:58.657Z,8.35
2023-04-04T16:07:11.146Z,8.88
2023-04-04T16:11:23.792Z,10.05
2023-04-04T16:15:36.181Z,6.03
2023-04-04T16:19:48.562Z,5.88
2023-04-04T16:24:01.134Z,8.43
2023-04-04T16:28:13.497Z,8.75
2023-04-04T16:32:26.121Z,8.57
2023-04-04T16:36:38.886Z,8.90
2023-04-04T16:40:51.261Z,9.88
2023-04-04T16:45:04.056Z,5.93
2023-04-04T16:49:16.721Z,6.60
2023-04-04T16:53:29.064Z,12.95
2023-04-04T16:57:42.293Z,7.55
2023-04-04T17:01:55.236Z,6.03
2023-04-04T17:06:08.039Z,6.57
2023-04-04T17:10:20.526Z,6.80
2023-04-04T17:14:33.783Z,12.38
2023-04-04T17:18:46.691Z,11.23
2023-04-04T17:22:59.228Z,11.02
2023-04-04T17:27:11.632Z,11.95
2023-04-04T17:31:24.196Z,8.77
2023-04-04T17:35:36.950Z,6.45
2023-04-04T17:39:49.549Z,6.65
2023-04-04T17:44:02.220Z,7.55
2023-04-04T17:48:14.820Z,8.23
2023-04-04T17:52:27.447Z,6.93
2023-04-04T17:56:39.833Z,10.13
2023-04-04T18:00:56.026Z,6.07
2023-04-04T18:05:10.400Z,8.50
2023-04-04T18:09:23.811Z,7.15
2023-04-04T18:13:36.506Z,9.25
2023-04-04T18:17:49.174Z,8.23
2023-04-04T18:22:01.857Z,8.38
2023-04-04T18:26:14.284Z,10.40
2023-04-04T18:30:27.973Z,11.77
2023-04-04T18:34:40.452Z,12.00
2023-04-04T18:38:52.925Z,15.25
2023-04-04T18:43:06.278Z,11.60
2023-04-04T18:47:18.731Z,12.77
2023-04-04T18:51:31.136Z,12.23
2023-04-04T18:55:43.463Z,13.60
2023-04-04T18:59:55.970Z,12.25
2023-04-04T19:04:09.039Z,15.90
2023-04-04T19:08:21.597Z,15.70
2023-04-04T19:12:34.722Z,12.23
2023-04-04T19:16:47.970Z,15.60
2023-04-04T19:21:00.503Z,13.85
2023-04-04T19:25:18.933Z,16.92
2023-04-04T19:29:32.348Z,15.80
2023-04-04T19:33:44.880Z,13.38
2023-04-04T19:37:57.329Z,13.65
2023-04-04T19:42:12.491Z,12.23
2023-04-04T19:46:29.743Z,11.10
2023-04-04T19:50:42.143Z,15.60
2023-04-04T19:54:54.535Z,12.35
2023-04-04T19:59:10.507Z,12.60
2023-04-04T20:03:34.569Z,10.23
2023-04-04T20:07:46.953Z,10.15
2023-04-04T20:11:59.269Z,9.98
2023-04-04T20:16:16.510Z,9.77
2023-04-04T20:20:53.202Z,11.35
2023-04-04T20:25:31.129Z,13.23
2023-04-04T20:29:44.004Z,12.05
2023-04-04T20:33:56.506Z,13.32
2023-04-04T20:38:08.892Z,12.70
2023-04-04T20:42:34.172Z,11.27
2023-04-04T20:46:47.834Z,14.30
2023-04-04T20:51:00.255Z,11.35
2023-04-04T20:55:13.079Z,11.18
2023-04-04T20:59:38.590Z,9.90
2023-04-04T21:03:52.215Z,20.60
2023-04-04T21:08:35.007Z,9.52
2023-04-04T21:12:47.439Z,8.85
2023-04-04T21:16:59.824Z,8.00
2023-04-04T21:21:19.508Z,10.52
2023-04-04T21:25:59.668Z,7.45
2023-04-04T21:30:43.129Z,9.17
2023-04-04T21:34:55.664Z,10.43
2023-04-04T21:39:16.285Z,12.18
2023-04-04T21:43:29.094Z,10.98
2023-04-04T21:47:41.474Z,10.57
2023-04-04T21:51:53.917Z,10.95
2023-04-04T21:56:06.427Z,10.20
2023-04-04T22:00:18.988Z,10.93
2023-04-04T22:04:31.433Z,11.32
2023-04-04T22:08:43.887Z,13.88
2023-04-04T22:12:59.675Z,10.02
2023-04-04T22:17:23.042Z,10.95
2023-04-04T22:21:37.346Z,13.00
2023-04-04T22:25:51.846Z,15.95
2023-04-04T22:30:06.246Z,11.82
2023-04-04T22:34:18.644Z,9.77
2023-04-04T22:38:31.340Z,12.30
2023-04-04T22:42:43.749Z,15.25
2023-04-04T22:46:58.756Z,14.32
2023-04-04T22:51:15.207Z,11.98
2023-04-04T22:55:28.248Z,11.32
2023-04-04T22:59:40.709Z,9.85
2023-04-04T23:03:53.113Z,11.98
2023-04-04T23:08:05.719Z,11.60
2023-04-04T23:12:18.172Z,15.75
2023-04-04T23:16:31.165Z,14.02
2023-04-04T23:20:43.919Z,13.80
2023-04-04T23:24:56.681Z,14.80
2023-04-04T23:29:10.117Z,14.85
2023-04-04T23:33:22.465Z,15.18
2023-04-04T23:37:35.980Z,13.90
2023-04-04T23:41:48.456Z,11.02
2023-04-04T23:46:00.829Z,10.30
2023-04-04T23:50:13.345Z,10.82
2023-04-04T23:54:25.916Z,10.60
2023-04-04T23:58:39.109Z,11.43
